createdAt,value
2019-02-20T00:02:23.269Z,73.74
2019-02-20T00:04:52.981Z,73.66
2019-02-20T00:07:23.820Z,73.68
2019-02-20T00:09:53.247Z,73.74
2019-02-20T00:12:23.734Z,73.68
2019-02-20T00:14:53.240Z,73.43
2019-02-20T00:17:22.908Z,73.78
2019-02-20T00:19:52.564Z,73.88
2019-02-20T00:22:23.351Z,74.20
2019-02-20T00:24:52.723Z,74.50
2019-02-20T00:27:23.484Z,74.67
2019-02-20T00:29:54.720Z,74.86
2019-02-20T00:32:24.645Z,74.59
2019-02-20T00:34:54.153Z,74.52
2019-02-20T00:37:23.700Z,74.18
2019-02-20T00:39:54.575Z,74.31
2019-02-20T00:42:26.186Z,74.47
2019-02-20T00:45:04.057Z,74.35
2019-02-20T00:47:53.152Z,74.10
2019-02-20T00:50:23.699Z,74.78
2019-02-20T00:52:58.404Z,74.38
2019-02-20T00:55:30.124Z,74.04
2019-02-20T00:57:59.585Z,73.90
2019-02-20T01:00:30.161Z,74.04
2019-02-20T01:03:00.039Z,73.76
2019-02-20T01:05:31.330Z,73.90
2019-02-20T01:08:00.830Z,73.85
2019-02-20T01:10:30.510Z,73.85
2019-02-20T01:13:00.011Z,74.03
2019-02-20T01:15:31.886Z,74.12
2019-02-20T01:18:02.641Z,74.20
2019-02-20T01:20:32.482Z,73.85
2019-02-20T01:23:02.990Z,73.66
2019-02-20T01:25:32.603Z,73.66
2019-02-20T01:28:03.344Z,73.49
2019-02-20T01:30:33.737Z,73.58
2019-02-20T01:33:06.953Z,73.94
2019-02-20T01:35:38.524Z,73.70
2019-02-20T01:38:09.052Z,73.67
2019-02-20T01:40:38.706Z,73.64
2019-02-20T01:43:09.320Z,73.41
2019-02-20T01:45:39.711Z,73.75
2019-02-20T01:48:09.368Z,73.90
2019-02-20T01:50:38.821Z,73.60
2019-02-20T01:53:10.648Z,73.71
2019-02-20T01:55:39.811Z,73.70
2019-02-20T01:58:10.531Z,73.61
2019-02-20T02:00:39.948Z,74.06
2019-02-20T02:03:09.558Z,74.00
2019-02-20T02:05:40.804Z,73.67
2019-02-20T02:08:10.449Z,73.46
2019-02-20T02:10:40.130Z,73.79
2019-02-20T02:13:10.509Z,73.69
2019-02-20T02:15:41.487Z,73.80
2019-02-20T02:18:11.250Z,73.46
2019-02-20T02:20:41.766Z,73.81
2019-02-20T02:23:19.662Z,74.05
2019-02-20T02:25:42.597Z,74.57
2019-02-20T02:28:16.074Z,74.45
2019-02-20T02:30:47.649Z,74.83
2019-02-20T02:33:17.279Z,75.01
2019-02-20T02:35:48.016Z,75.64
2019-02-20T02:38:18.602Z,75.24
2019-02-20T02:40:48.942Z,75.31
2019-02-20T02:43:19.848Z,75.44
2019-02-20T02:45:49.340Z,75.06
2019-02-20T02:48:18.835Z,75.11
2019-02-20T02:50:48.222Z,75.02
2019-02-20T02:53:17.895Z,75.21
2019-02-20T02:55:49.093Z,75.25
2019-02-20T02:58:19.786Z,75.15
2019-02-20T03:00:54.182Z,74.93
2019-02-20T03:03:26.049Z,74.43
2019-02-20T03:05:57.262Z,74.09
2019-02-20T03:08:26.628Z,74.24
2019-02-20T03:10:56.372Z,73.71
2019-02-20T03:13:25.790Z,73.78
2019-02-20T03:15:55.284Z,73.88
2019-02-20T03:18:24.902Z,73.69
2019-02-20T03:20:54.306Z,73.33
2019-02-20T03:23:23.705Z,73.84
2019-02-20T03:25:53.326Z,73.35
2019-02-20T03:28:22.697Z,72.99
2019-02-20T03:30:54.649Z,72.91
2019-02-20T03:33:25.535Z,72.63
2019-02-20T03:35:54.916Z,72.87
2019-02-20T03:38:30.247Z,72.80
2019-02-20T03:40:55.849Z,73.30
2019-02-20T03:43:25.202Z,73.67
2019-02-20T03:45:56.670Z,74.02
2019-02-20T03:48:26.409Z,74.11
2019-02-20T03:50:55.764Z,74.20
2019-02-20T03:53:28.770Z,74.96
2019-02-20T03:56:00.581Z,74.91
2019-02-20T03:58:33.316Z,74.75
2019-02-20T04:01:02.934Z,74.63
2019-02-20T04:03:34.169Z,74.60
2019-02-20T04:06:03.614Z,74.90
2019-02-20T04:08:34.161Z,74.49
2019-02-20T04:11:03.634Z,74.30
2019-02-20T04:13:33.135Z,74.30
2019-02-20T04:16:02.526Z,75.25
2019-02-20T04:18:33.768Z,74.61
2019-02-20T04:21:03.153Z,74.61
2019-02-20T04:23:32.576Z,74.59
2019-02-20T04:26:02.434Z,74.65
2019-02-20T04:28:33.057Z,74.17
2019-02-20T04:31:02.496Z,74.17
2019-02-20T04:33:31.961Z,74.34
2019-02-20T04:36:01.357Z,74.27
2019-02-20T04:38:30.769Z,74.78
2019-02-20T04:41:02.126Z,74.31
2019-02-20T04:43:32.654Z,74.89
2019-02-20T04:46:03.855Z,74.61
2019-02-20T04:48:33.642Z,74.69
2019-02-20T04:51:03.088Z,74.45
2019-02-20T04:53:32.469Z,74.27
2019-02-20T04:56:03.931Z,74.05
2019-02-20T04:58:33.334Z,74.21
2019-02-20T05:01:02.757Z,74.21
2019-02-20T05:03:34.050Z,73.79
2019-02-20T05:06:03.432Z,74.39
2019-02-20T05:08:34.294Z,74.78
2019-02-20T05:11:03.912Z,75.03
2019-02-20T05:13:33.631Z,74.24
2019-02-20T05:16:03.039Z,74.61
2019-02-20T05:18:33.674Z,74.58
2019-02-20T05:21:03.121Z,75.18
2019-02-20T05:23:33.520Z,74.83
2019-02-20T05:26:04.133Z,74.34
2019-02-20T05:28:33.519Z,74.38
2019-02-20T05:31:04.706Z,74.18
2019-02-20T05:33:35.749Z,74.30
2019-02-20T05:36:05.143Z,74.44
2019-02-20T05:38:34.527Z,75.00
2019-02-20T05:41:04.060Z,74.75
2019-02-20T05:43:33.488Z,74.24
2019-02-20T05:46:02.874Z,74.93
2019-02-20T05:48:32.486Z,74.73
2019-02-20T05:51:02.237Z,74.46
2019-02-20T05:53:33.123Z,75.09
2019-02-20T05:56:02.758Z,74.75
2019-02-20T05:58:32.141Z,74.43
2019-02-20T06:01:01.585Z,75.26
2019-02-20T06:03:31.112Z,75.21
2019-02-20T06:06:00.509Z,75.04
2019-02-20T06:08:29.966Z,74.91
2019-02-20T06:11:02.036Z,75.54
2019-02-20T06:13:31.408Z,74.95
2019-02-20T06:16:00.806Z,75.87
2019-02-20T06:18:30.300Z,75.95
2019-02-20T06:20:59.734Z,75.94
2019-02-20T06:23:32.727Z,75.10
2019-02-20T06:26:03.583Z,75.41
2019-02-20T06:28:33.188Z,75.67
2019-02-20T06:31:02.617Z,75.72
2019-02-20T06:33:32.227Z,75.79
2019-02-20T06:36:01.596Z,75.26
2019-02-20T06:38:31.002Z,75.60
2019-02-20T06:41:00.456Z,75.59
2019-02-20T06:43:29.826Z,75.10
2019-02-20T06:45:59.266Z,75.63
2019-02-20T06:48:30.750Z,75.96
2019-02-20T06:51:01.646Z,75.70
2019-02-20T06:53:31.146Z,75.25
2019-02-20T06:56:00.886Z,74.75
2019-02-20T06:58:31.294Z,74.58
2019-02-20T07:01:02.553Z,75.12
2019-02-20T07:03:35.746Z,75.00
2019-02-20T07:06:41.263Z,74.86
2019-02-20T07:10:07.493Z,75.23
2019-02-20T07:12:51.928Z,74.79
2019-02-20T07:15:53.689Z,75.27
2019-02-20T07:18:58.500Z,75.45
2019-02-20T07:22:00.752Z,75.61
2019-02-20T07:25:03.087Z,75.85
2019-02-20T07:28:00.067Z,75.54
2019-02-20T07:30:29.520Z,75.00
2019-02-20T07:33:00.015Z,74.99
2019-02-20T07:35:29.454Z,75.01
2019-02-20T07:37:58.855Z,75.03
2019-02-20T07:40:28.701Z,74.89
2019-02-20T07:43:00.249Z,74.67
2019-02-20T07:45:31.418Z,74.59
2019-02-20T07:48:00.809Z,74.76
2019-02-20T07:50:30.268Z,74.04
2019-02-20T07:53:00.724Z,74.48
2019-02-20T07:55:31.244Z,73.73
2019-02-20T07:58:02.836Z,73.28
2019-02-20T08:00:32.239Z,73.23
2019-02-20T08:03:01.738Z,73.55
2019-02-20T08:05:32.753Z,73.59
2019-02-20T08:08:02.159Z,73.09
2019-02-20T08:10:31.542Z,73.97
2019-02-20T08:13:03.003Z,73.37
2019-02-20T08:15:32.382Z,73.13
2019-02-20T08:18:03.296Z,73.31
2019-02-20T08:20:34.071Z,73.11
2019-02-20T08:23:03.551Z,72.95
2019-02-20T08:25:32.972Z,72.83
2019-02-20T08:28:02.599Z,73.10
2019-02-20T08:30:32.015Z,72.42
2019-02-20T08:33:03.126Z,72.27
2019-02-20T08:35:35.223Z,72.29
2019-02-20T08:38:04.566Z,72.56
2019-02-20T08:40:34.023Z,72.11
2019-02-20T08:43:08.058Z,72.38
2019-02-20T08:45:37.438Z,71.80
2019-02-20T08:48:06.860Z,72.55
2019-02-20T08:50:36.435Z,72.53
2019-02-20T08:53:05.807Z,72.74
2019-02-20T08:55:36.187Z,72.45
2019-02-20T08:58:06.342Z,72.88
2019-02-20T09:00:38.134Z,72.09
2019-02-20T09:03:07.521Z,71.71
2019-02-20T09:05:37.170Z,71.51
2019-02-20T09:08:08.062Z,71.47
2019-02-20T09:10:37.545Z,71.33
2019-02-20T09:13:09.012Z,72.12
2019-02-20T09:15:38.403Z,71.33
2019-02-20T09:18:07.929Z,70.84
2019-02-20T09:20:37.609Z,71.31
2019-02-20T09:23:10.849Z,71.18
2019-02-20T09:25:41.850Z,71.11
2019-02-20T09:28:11.670Z,71.11
2019-02-20T09:30:41.125Z,71.01
2019-02-20T09:33:10.510Z,71.19
2019-02-20T09:35:40.289Z,70.26
2019-02-20T09:38:10.534Z,70.52
2019-02-20T09:40:42.560Z,69.91
2019-02-20T09:43:12.205Z,70.14
2019-02-20T09:45:43.897Z,69.75
2019-02-20T09:48:12.805Z,69.60
2019-02-20T09:50:42.655Z,69.61
2019-02-20T09:53:12.189Z,69.47
2019-02-20T09:55:50.932Z,69.08
2019-02-20T09:58:14.383Z,69.35
2019-02-20T10:00:44.101Z,68.92
2019-02-20T10:03:13.952Z,68.71
2019-02-20T10:05:45.159Z,69.30
2019-02-20T10:08:14.542Z,68.69
2019-02-20T10:10:47.689Z,68.15
2019-02-20T10:13:18.696Z,68.76
2019-02-20T10:15:49.540Z,68.40
2019-02-20T10:18:19.128Z,68.09
2019-02-20T10:20:48.562Z,68.19
2019-02-20T10:23:20.025Z,68.24
2019-02-20T10:25:50.563Z,68.16
2019-02-20T10:28:21.661Z,68.47
2019-02-20T10:30:53.317Z,68.09
2019-02-20T10:33:23.679Z,68.08
2019-02-20T10:35:54.979Z,68.44
2019-02-20T10:38:27.263Z,68.02
2019-02-20T10:40:56.849Z,67.83
2019-02-20T10:43:26.578Z,67.59
2019-02-20T10:45:58.294Z,67.77
2019-02-20T10:48:29.850Z,67.08
2019-02-20T10:50:59.723Z,67.24
2019-02-20T10:53:29.264Z,66.56
2019-02-20T10:55:58.787Z,65.85
2019-02-20T10:58:28.273Z,66.12
2019-02-20T11:00:57.722Z,66.44
2019-02-20T11:03:29.013Z,65.94
2019-02-20T11:05:58.545Z,64.92
2019-02-20T11:08:28.296Z,65.72
2019-02-20T11:10:59.371Z,65.56
2019-02-20T11:13:29.091Z,64.80
2019-02-20T11:15:58.960Z,64.63
2019-02-20T11:18:28.399Z,64.63
2019-02-20T11:20:57.828Z,64.47
2019-02-20T11:23:28.315Z,64.45
2019-02-20T11:25:57.713Z,64.14
2019-02-20T11:28:28.876Z,64.84
2019-02-20T11:30:59.561Z,64.55
2019-02-20T11:33:29.151Z,64.54
2019-02-20T11:35:58.977Z,64.59
2019-02-20T11:38:30.913Z,65.01
2019-02-20T11:41:00.737Z,64.63
2019-02-20T11:43:30.961Z,65.09
2019-02-20T11:46:00.818Z,64.86
2019-02-20T11:48:30.711Z,64.69
2019-02-20T11:51:01.055Z,65.13
2019-02-20T11:53:37.136Z,65.69
2019-02-20T11:56:04.632Z,64.71
2019-02-20T11:58:35.969Z,64.18
2019-02-20T12:01:06.057Z,64.05
2019-02-20T12:03:36.033Z,64.31
2019-02-20T12:06:05.621Z,64.15
2019-02-20T12:08:36.092Z,64.27
2019-02-20T12:11:05.851Z,64.03
2019-02-20T12:13:38.097Z,64.44
2019-02-20T12:16:09.558Z,63.72
2019-02-20T12:18:39.162Z,64.23
2019-02-20T12:21:08.874Z,65.01
2019-02-20T12:23:38.441Z,64.12
2019-02-20T12:26:07.998Z,63.81
2019-02-20T12:28:37.686Z,63.68
2019-02-20T12:31:08.082Z,63.51
2019-02-20T12:33:37.441Z,64.13
2019-02-20T12:36:07.867Z,63.73
2019-02-20T12:38:37.346Z,63.73
2019-02-20T12:41:08.293Z,63.71
2019-02-20T12:43:41.713Z,63.16
2019-02-20T12:46:14.301Z,63.17
2019-02-20T12:48:43.799Z,62.76
2019-02-20T12:51:14.770Z,63.15
2019-02-20T12:53:44.454Z,63.29
2019-02-20T12:56:14.482Z,63.08
2019-02-20T12:58:54.823Z,62.73
2019-02-20T13:01:24.869Z,62.02
2019-02-20T13:03:56.262Z,62.36
2019-02-20T13:06:25.756Z,61.64
2019-02-20T13:08:56.353Z,60.66
2019-02-20T13:11:26.096Z,61.56
2019-02-20T13:13:56.326Z,61.12
2019-02-20T13:16:26.548Z,61.70
2019-02-20T13:18:58.682Z,61.59
2019-02-20T13:21:30.545Z,61.81
2019-02-20T13:24:02.074Z,62.05
2019-02-20T13:26:32.630Z,62.16
2019-02-20T13:29:02.856Z,62.38
2019-02-20T13:31:32.760Z,62.52
2019-02-20T13:34:05.904Z,62.18
2019-02-20T13:36:35.532Z,61.73
2019-02-20T13:39:06.375Z,61.78
2019-02-20T13:41:36.203Z,61.16
2019-02-20T13:44:06.048Z,61.78
2019-02-20T13:46:36.535Z,61.31
2019-02-20T13:49:06.037Z,60.61
2019-02-20T13:51:37.674Z,61.21
2019-02-20T13:54:07.167Z,60.64
2019-02-20T13:56:38.562Z,60.67
2019-02-20T13:59:09.738Z,61.09
2019-02-20T14:01:41.072Z,61.03
2019-02-20T14:04:10.558Z,60.34
2019-02-20T14:06:40.197Z,60.62
2019-02-20T14:09:09.714Z,60.90
2019-02-20T14:11:43.795Z,60.52
2019-02-20T14:14:14.482Z,60.33
2019-02-20T14:16:45.679Z,60.80
2019-02-20T14:19:15.677Z,60.78
2019-02-20T14:21:45.268Z,59.95
2019-02-20T14:24:15.805Z,60.04
2019-02-20T14:26:45.217Z,59.97
2019-02-20T14:29:14.814Z,58.19
2019-02-20T14:31:44.335Z,58.60
2019-02-20T14:34:14.107Z,59.20
2019-02-20T14:36:43.875Z,59.66
2019-02-20T14:39:13.607Z,59.77
2019-02-20T14:41:45.609Z,59.73
2019-02-20T14:44:15.543Z,59.73
2019-02-20T14:46:45.612Z,60.00
2019-02-20T14:49:16.618Z,60.00
2019-02-20T14:51:46.496Z,60.46
2019-02-20T14:54:15.934Z,60.67
2019-02-20T14:56:48.169Z,60.92
2019-02-20T14:59:17.810Z,60.84
2019-02-20T15:01:49.443Z,61.29
2019-02-20T15:04:19.900Z,61.46
2019-02-20T15:06:50.797Z,61.16
2019-02-20T15:09:22.704Z,61.72
2019-02-20T15:11:52.922Z,61.74
2019-02-20T15:14:24.375Z,61.63
2019-02-20T15:17:01.091Z,62.17
2019-02-20T15:19:31.125Z,62.27
2019-02-20T15:22:02.237Z,62.16
2019-02-20T15:24:32.664Z,62.20
2019-02-20T15:27:03.601Z,62.27
2019-02-20T15:29:33.322Z,62.29
2019-02-20T15:32:02.929Z,62.53
2019-02-20T15:34:32.526Z,62.76
2019-02-20T15:37:01.982Z,62.62
2019-02-20T15:39:32.980Z,62.66
2019-02-20T15:42:05.099Z,62.41
2019-02-20T15:44:37.596Z,62.30
2019-02-20T15:47:07.376Z,62.11
2019-02-20T15:49:37.906Z,62.02
2019-02-20T15:52:10.408Z,61.92
2019-02-20T15:54:46.180Z,62.14
2019-02-20T15:57:17.666Z,62.46
2019-02-20T15:59:52.690Z,62.26
2019-02-20T16:02:22.322Z,62.00
2019-02-20T16:04:54.599Z,61.68
2019-02-20T16:07:25.498Z,61.37
2019-02-20T16:09:57.586Z,61.18
2019-02-20T16:12:29.151Z,61.22
2019-02-20T16:15:02.035Z,61.14
2019-02-20T16:17:33.496Z,61.15
2019-02-20T16:20:03.236Z,61.11
2019-02-20T16:22:34.543Z,61.46
2019-02-20T16:25:04.073Z,61.52
2019-02-20T16:27:37.418Z,60.88
2019-02-20T16:30:07.491Z,60.86
2019-02-20T16:32:37.177Z,60.57
2019-02-20T16:35:07.822Z,60.49
2019-02-20T16:37:43.433Z,60.54
2019-02-20T16:40:16.458Z,59.91
2019-02-20T16:42:45.837Z,60.04
2019-02-20T16:45:24.519Z,59.65
2019-02-20T16:47:54.749Z,59.46
2019-02-20T16:50:24.142Z,59.79
2019-02-20T16:52:53.736Z,59.99
2019-02-20T16:55:23.326Z,60.57
2019-02-20T16:57:58.250Z,60.58
2019-02-20T17:00:30.742Z,60.88
2019-02-20T17:03:00.447Z,61.03
2019-02-20T17:05:32.636Z,60.94
2019-02-20T17:08:02.011Z,61.00
2019-02-20T17:10:38.183Z,60.52
2019-02-20T17:13:07.686Z,60.68
2019-02-20T17:15:41.361Z,60.80
2019-02-20T17:18:16.363Z,60.88
2019-02-20T17:20:45.760Z,60.78
2019-02-20T17:23:19.692Z,60.41
2019-02-20T17:25:51.670Z,60.30
2019-02-20T17:28:24.197Z,60.28
2019-02-20T17:30:55.419Z,60.25
2019-02-20T17:33:25.917Z,59.34
2019-02-20T17:35:56.837Z,59.54
2019-02-20T17:38:29.080Z,59.83
2019-02-20T17:41:03.868Z,59.77
2019-02-20T17:43:32.589Z,59.45
2019-02-20T17:46:03.688Z,58.92
2019-02-20T17:48:36.084Z,59.12
2019-02-20T17:51:06.742Z,58.61
2019-02-20T17:53:38.844Z,58.62
2019-02-20T17:56:11.059Z,58.88
2019-02-20T17:58:42.731Z,59.26
2019-02-20T18:01:16.618Z,59.33
2019-02-20T18:03:47.738Z,60.22
2019-02-20T18:06:17.127Z,60.23
2019-02-20T18:08:47.463Z,60.39
2019-02-20T18:11:17.047Z,59.84
2019-02-20T18:13:46.437Z,60.02
2019-02-20T18:16:17.312Z,60.08
2019-02-20T18:18:48.136Z,60.48
2019-02-20T18:21:18.632Z,60.23
2019-02-20T18:23:48.078Z,59.63
2019-02-20T18:26:19.787Z,59.84
2019-02-20T18:28:49.295Z,59.65
2019-02-20T18:31:18.646Z,59.57
2019-02-20T18:33:48.259Z,59.36
2019-02-20T18:36:17.803Z,59.18
2019-02-20T18:38:49.605Z,59.05
2019-02-20T18:41:21.284Z,58.87
2019-02-20T18:43:50.696Z,58.55
2019-02-20T18:46:20.075Z,58.67
2019-02-20T18:48:49.726Z,58.29
2019-02-20T18:51:19.099Z,58.57
2019-02-20T18:53:49.954Z,58.78
2019-02-20T18:56:21.757Z,58.96
2019-02-20T18:58:50.584Z,59.06
2019-02-20T19:01:21.421Z,59.01
2019-02-20T19:03:50.957Z,59.38
2019-02-20T19:06:23.273Z,58.95
2019-02-20T19:09:04.398Z,59.40
2019-02-20T19:11:56.505Z,59.38
2019-02-20T19:14:44.087Z,59.29
2019-02-20T19:18:08.208Z,59.19
2019-02-20T19:21:09.727Z,58.78
2019-02-20T19:24:10.731Z,58.77
2019-02-20T19:27:08.129Z,59.12
2019-02-20T19:30:15.906Z,59.23
2019-02-20T19:33:11.547Z,59.54
2019-02-20T19:36:22.417Z,59.14
2019-02-20T19:39:24.066Z,58.53
2019-02-20T19:42:57.999Z,58.36
2019-02-20T19:45:44.081Z,58.87
2019-02-20T19:48:44.245Z,58.74
2019-02-20T19:52:03.617Z,58.91
2019-02-20T19:54:49.183Z,58.74
2019-02-20T19:58:05.794Z,58.68
2019-02-20T20:01:21.221Z,58.54
2019-02-20T20:04:21.141Z,58.80
2019-02-20T20:07:43.886Z,58.30
2019-02-20T20:11:03.299Z,58.61
2019-02-20T20:13:47.382Z,58.61
2019-02-20T20:17:10.161Z,58.45
2019-02-20T20:19:57.168Z,58.57
2019-02-20T20:23:00.303Z,59.05
2019-02-20T20:26:21.277Z,58.79
2019-02-20T20:29:39.854Z,58.68
2019-02-20T20:32:33.613Z,58.41
2019-02-20T20:35:27.471Z,58.89
2019-02-20T20:38:21.550Z,58.78
2019-02-20T20:41:27.107Z,59.06
2019-02-20T20:44:34.694Z,58.93
2019-02-20T20:47:32.448Z,59.31
2019-02-20T20:50:38.309Z,59.07
2019-02-20T20:53:50.562Z,58.94
2019-02-20T20:56:33.946Z,59.33
2019-02-20T20:59:40.380Z,59.48
2019-02-20T21:02:46.182Z,59.46
2019-02-20T21:06:08.930Z,59.79
2019-02-20T21:08:55.649Z,59.46
2019-02-20T21:11:51.010Z,59.33
2019-02-20T21:15:13.835Z,59.37
2019-02-20T21:18:32.919Z,59.51
2019-02-20T21:21:16.737Z,59.44
2019-02-20T21:24:54.684Z,59.43
2019-02-20T21:27:44.497Z,59.27
2019-02-20T21:31:07.203Z,59.57
2019-02-20T21:34:12.235Z,59.43
2019-02-20T21:37:10.813Z,59.29
2019-02-20T21:40:16.989Z,59.42
2019-02-20T21:43:20.582Z,59.32
2019-02-20T21:46:40.303Z,59.16
2019-02-20T21:49:36.434Z,59.24
2019-02-20T21:52:31.928Z,59.38
2019-02-20T21:55:55.266Z,59.44
2019-02-20T21:59:04.165Z,59.66
2019-02-20T22:02:18.805Z,59.54
2019-02-20T22:04:54.553Z,59.69
2019-02-20T22:08:06.804Z,59.86
2019-02-20T22:11:04.380Z,60.04
2019-02-20T22:14:17.601Z,60.12
2019-02-20T22:17:11.239Z,60.26
2019-02-20T22:20:21.390Z,60.26
2019-02-20T22:23:47.186Z,60.28
2019-02-20T22:26:59.308Z,60.25
2019-02-20T22:29:50.216Z,60.45
2019-02-20T22:33:07.059Z,60.52
2019-02-20T22:36:01.767Z,60.69
2019-02-20T22:39:01.147Z,60.78
2019-02-20T22:42:10.727Z,60.60
2019-02-20T22:45:19.858Z,61.00
2019-02-20T22:48:27.932Z,61.15
2019-02-20T22:51:31.295Z,61.08
2019-02-20T22:54:24.305Z,61.05
2019-02-20T22:57:31.215Z,61.09
2019-02-20T23:00:41.118Z,61.32
2019-02-20T23:03:53.189Z,61.28
2019-02-20T23:07:04.405Z,61.30
2019-02-20T23:09:59.066Z,61.34
2019-02-20T23:12:53.155Z,61.59
2019-02-20T23:15:26.048Z,61.36
2019-02-20T23:17:55.393Z,61.53
2019-02-20T23:20:26.286Z,61.25
2019-02-20T23:22:57.115Z,61.52
2019-02-20T23:25:26.599Z,61.73
2019-02-20T23:27:57.979Z,61.73
2019-02-20T23:30:27.373Z,61.51
2019-02-20T23:32:57.962Z,61.47
2019-02-20T23:35:29.104Z,61.48
2019-02-20T23:37:58.899Z,61.47
2019-02-20T23:40:28.276Z,60.94
2019-02-20T23:42:57.899Z,61.34
2019-02-20T23:45:27.394Z,61.15
2019-02-20T23:47:56.836Z,61.11
2019-02-20T23:50:26.537Z,61.13
2019-02-20T23:52:55.939Z,61.37
2019-02-20T23:55:25.352Z,61.57
2019-02-20T23:57:55.020Z,61.62
